Terminal Aerodrome Forecast
Issued by NWS

Current Version | Previous Version | Text Only | Print | Product List | Glossary On
Versions: 1 2 3 4 5 6 7 8 9 10 11 12 13 14 15 16
000
FTUS42 KFFC 250500
TAFRYY
TAF
KRYY 250529Z 2506/2606 00000KT P6SM SKC
     FM251500 33005KT P6SM SKC
     FM260200 31004KT P6SM FEW025
      AMD NOT SKED TIL 251200=

USA.gov is the U.S. government's official web portal to all federal, state and local government web resources and services.